King Salmon, AK

5:22 PM AKDT on July 25, 2016 (GMT -0800)
King Salmon | | Change Station

Elev 46 ft 58.68 °N, 156.66 °W | Updated 28 minutes ago

Overcast
Overcast
67 °F
Feels Like 67 °F
N
9
Wind Variable Wind from NNE

Today
High -- | Low -- °F
--% Chance of Precip.
Yesterday
High -- | Low -- °F
Precip. -- in
Pressure 29.60 in
Visibility 10.0 miles
Clouds Scattered Clouds 3700 ft
Mostly Cloudy 4400 ft
Overcast 7500 ft
Dew Point 55 °F
Humidity 66%
Rainfall 0.00 in
Snow Depth Not available.
6:02 AM 11:02 PM
Waning Gibbous, 60% visible
METAR PAKN 260054Z 02008KT 10SM SCT037 BKN044 OVC075 19/13 A2960 RMK AO2 SLP024 T01940128
Pressure 29.60 in
Visibility 10.0 miles
Clouds Scattered Clouds 3700 ft
Mostly Cloudy 4400 ft
Overcast 7500 ft
Dew Point 55 °F
Humidity 66%
Rainfall 0.00 in
Snow Depth Not available.
6:02 AM 11:02 PM
Waning Gibbous, 60% visible
METAR PAKN 260054Z 02008KT 10SM SCT037 BKN044 OVC075 19/13 A2960 RMK AO2 SLP024 T01940128

10-Day Weather Forecast

Almanac

Astronomy

Jul. 25, 2016 Rise Set
Actual Time
Civil Twilight
Nautical Twilight
Astronomical Twilight
Moon
Length of Visible Light
Length of Day
Tomorrow will be .
, % of the Moon is Illuminated

Today's Extremes

State Highs State Lows

Community

WunderPhotos

Upload Photos

1,927,487 photos uploaded!

WunderBlog® & News

Nearby

Air Quality

  Air Quality AQ Index Pollutant
Not available.

Snow Depth

Station Depth Elevation

Earthquake Activity

City Distance Mag. Time & Date
Minimum magnitude displayed is 2.5.

Coastal Water Temperatures

Place Temperature

Stations

Nearby Weather Stations

Station Location Temp. Windchill Dew Point Humidity Wind Precip. Elev Updated Type
                   

Watches & Warnings

There are currently no watches in effect.